TCA7378 SVCS-TNCB
Flight info
| Callsign | TCA7378 |
|---|---|
| Flight time | 0h 37m |
| Altitude | 24000 |
| Route | GUTUX1 ORODI W6 ATONO A315 AVELO AVELO1N |
| Aircraft | C25B/M-SDE2E3FGHRWXY/LB1 |
Departure
| Time | 2026-04-14 21:24 |
|---|---|
| Airport | Caracas Óscar Machado Zuloaga International Airport (SVCS) |
Arrival
| Time | 2026-04-14 22:01 |
|---|---|
| Airport | Flamingo International Airport (TNCB) |
| Time | Latitude | Longitude | Altitude | Speed | Heading |
|---|---|---|---|---|---|
| 2026-04-14 21:06 | 10.28805 | -66.82070 | 2166 ft | 0 kts | 185° |
| 2026-04-14 21:21 | 10.28804 | -66.82071 | 2166 ft | 2 kts | 186° |
| 2026-04-14 21:21 | 10.28778 | -66.82078 | 2163 ft | 6 kts | 236° |
| 2026-04-14 21:22 | 10.28780 | -66.82148 | 2163 ft | 14 kts | 273° |
| 2026-04-14 21:22 | 10.28788 | -66.82273 | 2163 ft | 21 kts | 273° |
| 2026-04-14 21:22 | 10.28797 | -66.82418 | 2168 ft | 20 kts | 274° |
| 2026-04-14 21:22 | 10.28786 | -66.82512 | 2165 ft | 8 kts | 188° |
| 2026-04-14 21:23 | 10.28750 | -66.82498 | 2164 ft | 3 kts | 94° |
| 2026-04-14 21:23 | 10.28749 | -66.82490 | 2166 ft | 13 kts | 93° |
| 2026-04-14 21:23 | 10.28715 | -66.81988 | 2167 ft | 129 kts | 94° |
| 2026-04-14 21:23 | 10.28625 | -66.80826 | 2729 ft | 188 kts | 93° |
| 2026-04-14 21:24 | 10.28544 | -66.79403 | 3881 ft | 213 kts | 90° |
| 2026-04-14 21:24 | 10.28441 | -66.77832 | 4604 ft | 238 kts | 93° |
| 2026-04-14 21:24 | 10.28318 | -66.76155 | 5836 ft | 239 kts | 93° |
| 2026-04-14 21:24 | 10.28211 | -66.74451 | 7017 ft | 244 kts | 93° |
| 2026-04-14 21:25 | 10.28489 | -66.72761 | 8068 ft | 249 kts | 63° |
| 2026-04-14 21:25 | 10.29707 | -66.71515 | 9143 ft | 257 kts | 30° |
| 2026-04-14 21:25 | 10.31474 | -66.71185 | 10095 ft | 268 kts | 353° |
| 2026-04-14 21:25 | 10.33150 | -66.71992 | 11100 ft | 272 kts | 316° |
| 2026-04-14 21:26 | 10.34056 | -66.73638 | 12173 ft | 270 kts | 281° |
| 2026-04-14 21:26 | 10.34172 | -66.75533 | 13245 ft | 269 kts | 268° |
| 2026-04-14 21:26 | 10.34123 | -66.77401 | 14348 ft | 268 kts | 267° |
| 2026-04-14 21:26 | 10.34136 | -66.79296 | 15389 ft | 269 kts | 270° |
| 2026-04-14 21:27 | 10.34220 | -66.81194 | 16400 ft | 270 kts | 271° |
| 2026-04-14 21:27 | 10.34292 | -66.83114 | 17345 ft | 273 kts | 269° |
| 2026-04-14 21:27 | 10.34370 | -66.85039 | 18213 ft | 273 kts | 270° |
| 2026-04-14 21:27 | 10.34392 | -66.86974 | 19061 ft | 276 kts | 269° |
| 2026-04-14 21:28 | 10.34454 | -66.88941 | 19789 ft | 280 kts | 271° |
| 2026-04-14 21:28 | 10.34538 | -66.90933 | 20613 ft | 284 kts | 271° |
| 2026-04-14 21:28 | 10.34870 | -66.92925 | 21346 ft | 290 kts | 283° |
| 2026-04-14 21:28 | 10.35559 | -66.94865 | 22090 ft | 295 kts | 290° |
| 2026-04-14 21:29 | 10.36333 | -66.96767 | 22820 ft | 297 kts | 289° |
| 2026-04-14 21:29 | 10.37114 | -66.98730 | 23509 ft | 302 kts | 289° |
| 2026-04-14 21:29 | 10.37913 | -67.00739 | 23884 ft | 317 kts | 289° |
| 2026-04-14 21:29 | 10.38768 | -67.02889 | 23892 ft | 339 kts | 290° |
| 2026-04-14 21:30 | 10.39685 | -67.05170 | 23901 ft | 357 kts | 290° |
| 2026-04-14 21:30 | 10.40644 | -67.07560 | 23902 ft | 371 kts | 290° |
| 2026-04-14 21:30 | 10.41610 | -67.09976 | 23898 ft | 367 kts | 290° |
| 2026-04-14 21:30 | 10.42656 | -67.12331 | 23896 ft | 366 kts | 296° |
| 2026-04-14 21:31 | 10.44080 | -67.14483 | 23898 ft | 368 kts | 304° |
| 2026-04-14 21:31 | 10.45788 | -67.16379 | 23895 ft | 371 kts | 314° |
| 2026-04-14 21:31 | 10.47801 | -67.18022 | 23892 ft | 373 kts | 322° |
| 2026-04-14 21:31 | 10.50063 | -67.19342 | 23894 ft | 375 kts | 327° |
| 2026-04-14 21:32 | 10.52327 | -67.20650 | 23892 ft | 375 kts | 326° |
| 2026-04-14 21:32 | 10.54595 | -67.21961 | 23894 ft | 375 kts | 327° |
| 2026-04-14 21:32 | 10.56874 | -67.23251 | 23896 ft | 375 kts | 327° |
| 2026-04-14 21:32 | 10.59156 | -67.24545 | 23898 ft | 374 kts | 327° |
| 2026-04-14 21:33 | 10.61422 | -67.25847 | 23898 ft | 374 kts | 326° |
| 2026-04-14 21:33 | 10.63692 | -67.27143 | 23899 ft | 374 kts | 327° |
| 2026-04-14 21:33 | 10.65909 | -67.28448 | 23898 ft | 372 kts | 324° |
| 2026-04-14 21:33 | 10.68132 | -67.29801 | 23898 ft | 372 kts | 325° |
| 2026-04-14 21:34 | 10.70370 | -67.31122 | 23898 ft | 372 kts | 326° |
| 2026-04-14 21:34 | 10.72594 | -67.32460 | 23897 ft | 371 kts | 325° |
| 2026-04-14 21:34 | 10.74818 | -67.33796 | 23897 ft | 372 kts | 325° |
| 2026-04-14 21:34 | 10.77040 | -67.35138 | 23897 ft | 372 kts | 325° |
| 2026-04-14 21:35 | 10.79272 | -67.36473 | 23897 ft | 372 kts | 325° |
| 2026-04-14 21:35 | 10.81496 | -67.37814 | 23897 ft | 372 kts | 325° |
| 2026-04-14 21:35 | 10.83693 | -67.39133 | 23897 ft | 372 kts | 325° |
| 2026-04-14 21:35 | 10.85922 | -67.40472 | 23898 ft | 372 kts | 325° |
| 2026-04-14 21:36 | 10.88146 | -67.41813 | 23898 ft | 372 kts | 325° |
| 2026-04-14 21:36 | 10.90373 | -67.43152 | 23898 ft | 372 kts | 325° |
| 2026-04-14 21:36 | 10.92601 | -67.44489 | 23898 ft | 372 kts | 325° |
| 2026-04-14 21:36 | 10.94827 | -67.45834 | 23898 ft | 372 kts | 325° |
| 2026-04-14 21:37 | 10.97054 | -67.47171 | 23898 ft | 371 kts | 324° |
| 2026-04-14 21:37 | 10.99067 | -67.48714 | 23889 ft | 366 kts | 314° |
| 2026-04-14 21:37 | 11.00834 | -67.50557 | 23890 ft | 362 kts | 306° |
| 2026-04-14 21:37 | 11.02400 | -67.52557 | 23891 ft | 362 kts | 306° |
| 2026-04-14 21:38 | 11.04033 | -67.54515 | 23891 ft | 363 kts | 307° |
| 2026-04-14 21:38 | 11.05654 | -67.56481 | 23892 ft | 363 kts | 306° |
| 2026-04-14 21:38 | 11.07253 | -67.58466 | 23892 ft | 363 kts | 306° |
| 2026-04-14 21:38 | 11.08858 | -67.60447 | 23893 ft | 363 kts | 307° |
| 2026-04-14 21:39 | 11.10472 | -67.62419 | 23893 ft | 363 kts | 306° |
| 2026-04-14 21:39 | 11.12077 | -67.64403 | 23893 ft | 363 kts | 306° |
| 2026-04-14 21:39 | 11.13669 | -67.66354 | 23894 ft | 363 kts | 306° |
| 2026-04-14 21:39 | 11.15275 | -67.68332 | 23894 ft | 362 kts | 306° |
| 2026-04-14 21:40 | 11.16884 | -67.70313 | 23894 ft | 363 kts | 306° |
| 2026-04-14 21:40 | 11.18487 | -67.72293 | 23894 ft | 362 kts | 306° |
| 2026-04-14 21:40 | 11.20100 | -67.74266 | 23894 ft | 363 kts | 307° |
| 2026-04-14 21:40 | 11.21702 | -67.76246 | 23895 ft | 362 kts | 306° |
| 2026-04-14 21:41 | 11.23308 | -67.78223 | 23894 ft | 362 kts | 306° |
| 2026-04-14 21:41 | 11.24888 | -67.80173 | 23894 ft | 362 kts | 306° |
| 2026-04-14 21:41 | 11.26497 | -67.82146 | 23894 ft | 362 kts | 306° |
| 2026-04-14 21:41 | 11.28111 | -67.84144 | 23571 ft | 370 kts | 306° |
| 2026-04-14 21:42 | 11.29779 | -67.86201 | 23076 ft | 382 kts | 307° |
| 2026-04-14 21:42 | 11.31492 | -67.88309 | 22560 ft | 391 kts | 306° |
| 2026-04-14 21:42 | 11.33235 | -67.90460 | 22034 ft | 397 kts | 306° |
| 2026-04-14 21:42 | 11.35009 | -67.92640 | 21499 ft | 402 kts | 306° |
| 2026-04-14 21:43 | 11.36794 | -67.94847 | 20971 ft | 405 kts | 306° |
| 2026-04-14 21:43 | 11.38547 | -67.97002 | 20435 ft | 380 kts | 306° |
| 2026-04-14 21:43 | 11.40172 | -67.99000 | 19965 ft | 354 kts | 305° |
| 2026-04-14 21:43 | 11.41694 | -68.00825 | 19523 ft | 333 kts | 309° |
| 2026-04-14 21:44 | 11.43426 | -68.02330 | 19097 ft | 323 kts | 317° |
| 2026-04-14 21:44 | 11.45144 | -68.03743 | 18675 ft | 313 kts | 315° |
| 2026-04-14 21:44 | 11.46807 | -68.05132 | 18266 ft | 306 kts | 316° |
| 2026-04-14 21:44 | 11.48459 | -68.06461 | 17870 ft | 301 kts | 315° |
| 2026-04-14 21:45 | 11.50088 | -68.07795 | 17473 ft | 299 kts | 315° |
| 2026-04-14 21:45 | 11.51703 | -68.09117 | 17080 ft | 297 kts | 315° |
| 2026-04-14 21:45 | 11.53312 | -68.10431 | 16688 ft | 296 kts | 316° |
| 2026-04-14 21:45 | 11.54894 | -68.11728 | 16301 ft | 295 kts | 316° |
| 2026-04-14 21:46 | 11.56493 | -68.13033 | 15905 ft | 294 kts | 316° |
| 2026-04-14 21:46 | 11.58087 | -68.14335 | 15514 ft | 293 kts | 316° |
| 2026-04-14 21:46 | 11.59673 | -68.15635 | 15121 ft | 292 kts | 317° |
| 2026-04-14 21:46 | 11.61258 | -68.16927 | 14740 ft | 291 kts | 317° |
| 2026-04-14 21:47 | 11.62833 | -68.18217 | 14351 ft | 290 kts | 317° |
| 2026-04-14 21:47 | 11.64404 | -68.19509 | 13968 ft | 290 kts | 318° |
| 2026-04-14 21:47 | 11.65978 | -68.20790 | 13586 ft | 289 kts | 318° |
| 2026-04-14 21:47 | 11.67522 | -68.22056 | 13211 ft | 288 kts | 319° |
| 2026-04-14 21:48 | 11.69082 | -68.23330 | 12826 ft | 287 kts | 319° |
| 2026-04-14 21:48 | 11.70638 | -68.24608 | 12445 ft | 287 kts | 319° |
| 2026-04-14 21:48 | 11.72192 | -68.25880 | 12068 ft | 286 kts | 319° |
| 2026-04-14 21:48 | 11.73745 | -68.27152 | 11698 ft | 286 kts | 319° |
| 2026-04-14 21:49 | 11.75293 | -68.28419 | 11325 ft | 285 kts | 320° |
| 2026-04-14 21:49 | 11.76840 | -68.29682 | 10965 ft | 284 kts | 320° |
| 2026-04-14 21:49 | 11.78369 | -68.30943 | 10707 ft | 280 kts | 320° |
| 2026-04-14 21:49 | 11.79887 | -68.32180 | 10391 ft | 279 kts | 321° |
| 2026-04-14 21:50 | 11.81381 | -68.33409 | 10041 ft | 280 kts | 320° |
| 2026-04-14 21:50 | 11.82904 | -68.34650 | 9672 ft | 281 kts | 321° |
| 2026-04-14 21:50 | 11.84428 | -68.35907 | 9296 ft | 282 kts | 320° |
| 2026-04-14 21:50 | 11.85962 | -68.37165 | 8911 ft | 283 kts | 321° |
| 2026-04-14 21:51 | 11.87504 | -68.38425 | 8525 ft | 284 kts | 321° |
| 2026-04-14 21:51 | 11.89039 | -68.39693 | 8144 ft | 284 kts | 322° |
| 2026-04-14 21:51 | 11.90570 | -68.40928 | 7779 ft | 273 kts | 322° |
| 2026-04-14 21:51 | 11.91980 | -68.42109 | 7483 ft | 258 kts | 321° |
| 2026-04-14 21:52 | 11.93351 | -68.43225 | 7204 ft | 246 kts | 322° |
| 2026-04-14 21:52 | 11.94659 | -68.44296 | 6930 ft | 236 kts | 322° |
| 2026-04-14 21:52 | 11.95919 | -68.45329 | 6653 ft | 229 kts | 322° |
| 2026-04-14 21:52 | 11.97141 | -68.46332 | 6382 ft | 222 kts | 323° |
| 2026-04-14 21:53 | 11.98469 | -68.47050 | 6105 ft | 213 kts | 345° |
| 2026-04-14 21:53 | 11.99885 | -68.47294 | 5867 ft | 201 kts | 1° |
| 2026-04-14 21:53 | 12.01245 | -68.47217 | 5644 ft | 192 kts | 5° |
| 2026-04-14 21:53 | 12.02571 | -68.47206 | 5411 ft | 189 kts | 2° |
| 2026-04-14 21:54 | 12.03851 | -68.47167 | 5174 ft | 186 kts | 5° |
| 2026-04-14 21:54 | 12.05140 | -68.47126 | 4930 ft | 185 kts | 4° |
| 2026-04-14 21:54 | 12.06428 | -68.47087 | 4683 ft | 185 kts | 4° |
| 2026-04-14 21:54 | 12.07709 | -68.47049 | 4438 ft | 184 kts | 5° |
| 2026-04-14 21:55 | 12.08982 | -68.47009 | 4197 ft | 182 kts | 5° |
| 2026-04-14 21:55 | 12.10247 | -68.46972 | 3956 ft | 181 kts | 4° |
| 2026-04-14 21:55 | 12.11440 | -68.46759 | 3716 ft | 174 kts | 27° |
| 2026-04-14 21:55 | 12.12457 | -68.46111 | 3492 ft | 171 kts | 41° |
| 2026-04-14 21:56 | 12.13172 | -68.45178 | 3289 ft | 166 kts | 63° |
| 2026-04-14 21:56 | 12.13545 | -68.44073 | 3071 ft | 165 kts | 81° |
| 2026-04-14 21:56 | 12.13553 | -68.42910 | 2856 ft | 163 kts | 92° |
| 2026-04-14 21:56 | 12.13522 | -68.41749 | 2641 ft | 163 kts | 90° |
| 2026-04-14 21:57 | 12.13490 | -68.40583 | 2421 ft | 164 kts | 91° |
| 2026-04-14 21:57 | 12.13460 | -68.39418 | 2202 ft | 164 kts | 91° |
| 2026-04-14 21:57 | 12.13426 | -68.38259 | 1986 ft | 164 kts | 91° |
| 2026-04-14 21:57 | 12.13388 | -68.37099 | 1770 ft | 163 kts | 92° |
| 2026-04-14 21:58 | 12.13357 | -68.35957 | 1556 ft | 163 kts | 92° |
| 2026-04-14 21:58 | 12.13320 | -68.34798 | 1337 ft | 162 kts | 92° |
| 2026-04-14 21:58 | 12.13290 | -68.33659 | 1152 ft | 150 kts | 92° |
| 2026-04-14 21:58 | 12.13258 | -68.32707 | 949 ft | 122 kts | 93° |
| 2026-04-14 21:59 | 12.13233 | -68.31891 | 778 ft | 109 kts | 92° |
| 2026-04-14 21:59 | 12.13214 | -68.31141 | 633 ft | 102 kts | 93° |
| 2026-04-14 21:59 | 12.13188 | -68.30419 | 495 ft | 102 kts | 92° |
| 2026-04-14 21:59 | 12.13172 | -68.29682 | 364 ft | 104 kts | 94° |
| 2026-04-14 22:00 | 12.13130 | -68.28950 | 216 ft | 104 kts | 94° |
| 2026-04-14 22:00 | 12.13109 | -68.28214 | 90 ft | 104 kts | 91° |
| 2026-04-14 22:00 | 12.13100 | -68.27492 | 27 ft | 95 kts | 91° |
| 2026-04-14 22:00 | 12.13083 | -68.26931 | 23 ft | 51 kts | 91° |
| 2026-04-14 22:01 | 12.13074 | -68.26696 | 23 ft | 24 kts | 96° |
| 2026-04-14 22:01 | 12.13066 | -68.26593 | 23 ft | 5 kts | 344° |
| 2026-04-14 22:01 | 12.13073 | -68.26616 | 23 ft | 6 kts | 273° |
| 2026-04-14 22:01 | 12.13078 | -68.26710 | 23 ft | 20 kts | 272° |
| 2026-04-14 22:02 | 12.13084 | -68.26883 | 23 ft | 25 kts | 272° |
| 2026-04-14 22:02 | 12.13090 | -68.27063 | 23 ft | 26 kts | 272° |
| 2026-04-14 22:02 | 12.13096 | -68.27250 | 25 ft | 27 kts | 271° |
| 2026-04-14 22:02 | 12.13101 | -68.27443 | 22 ft | 28 kts | 272° |
| 2026-04-14 22:03 | 12.13107 | -68.27591 | 26 ft | 20 kts | 272° |
| 2026-04-14 22:03 | 12.13110 | -68.27733 | 23 ft | 16 kts | 272° |
| 2026-04-14 22:03 | 12.13197 | -68.27772 | 26 ft | 14 kts | 4° |
| 2026-04-14 22:03 | 12.13261 | -68.27766 | 23 ft | 6 kts | 40° |
| 2026-04-14 22:04 | 12.13266 | -68.27761 | 24 ft | 0 kts | 50° |